sensor_id;sensor_type;location;lat;lon;timestamp;P1;durP1;ratioP1;P2;durP2;ratioP2
10987;SDS011;5547;42.672;23.230;2023-02-16T00:02:56;59.90;;;37.20;;
10987;SDS011;5547;42.672;23.230;2023-02-16T00:05:57;61.17;;;38.60;;
10987;SDS011;5547;42.672;23.230;2023-02-16T00:08:57;62.27;;;38.27;;
10987;SDS011;5547;42.672;23.230;2023-02-16T00:11:57;64.90;;;39.73;;
10987;SDS011;5547;42.672;23.230;2023-02-16T00:15:16;58.88;;;37.00;;
10987;SDS011;5547;42.672;23.230;2023-02-16T00:18:19;61.50;;;37.55;;
10987;SDS011;5547;42.672;23.230;2023-02-16T00:21:20;64.37;;;41.60;;
10987;SDS011;5547;42.672;23.230;2023-02-16T00:24:21;61.72;;;38.95;;
10987;SDS011;5547;42.672;23.230;2023-02-16T00:27:22;59.03;;;37.75;;
10987;SDS011;5547;42.672;23.230;2023-02-16T00:30:23;60.47;;;37.80;;
10987;SDS011;5547;42.672;23.230;2023-02-16T00:33:23;62.50;;;36.53;;
10987;SDS011;5547;42.672;23.230;2023-02-16T00:36:23;67.65;;;42.17;;
10987;SDS011;5547;42.672;23.230;2023-02-16T00:39:24;72.50;;;43.73;;
10987;SDS011;5547;42.672;23.230;2023-02-16T00:42:25;63.97;;;38.97;;
10987;SDS011;5547;42.672;23.230;2023-02-16T00:45:30;63.05;;;38.33;;
10987;SDS011;5547;42.672;23.230;2023-02-16T00:48:35;62.43;;;35.83;;
10987;SDS011;5547;42.672;23.230;2023-02-16T00:51:35;58.55;;;36.42;;
10987;SDS011;5547;42.672;23.230;2023-02-16T00:54:35;57.87;;;34.90;;
10987;SDS011;5547;42.672;23.230;2023-02-16T00:57:53;57.37;;;34.27;;
10987;SDS011;5547;42.672;23.230;2023-02-16T01:01:03;56.47;;;31.95;;
10987;SDS011;5547;42.672;23.230;2023-02-16T01:04:07;59.50;;;34.27;;
10987;SDS011;5547;42.672;23.230;2023-02-16T01:07:12;57.13;;;33.42;;
10987;SDS011;5547;42.672;23.230;2023-02-16T01:10:35;56.83;;;31.00;;
10987;SDS011;5547;42.672;23.230;2023-02-16T01:13:55;57.40;;;31.55;;
10987;SDS011;5547;42.672;23.230;2023-02-16T01:16:56;58.03;;;31.40;;
10987;SDS011;5547;42.672;23.230;2023-02-16T01:19:56;55.83;;;31.10;;
10987;SDS011;5547;42.672;23.230;2023-02-16T01:22:57;51.50;;;29.33;;
10987;SDS011;5547;42.672;23.230;2023-02-16T01:25:57;56.53;;;31.13;;
10987;SDS011;5547;42.672;23.230;2023-02-16T01:28:57;61.43;;;33.27;;
10987;SDS011;5547;42.672;23.230;2023-02-16T01:31:58;54.28;;;29.95;;
10987;SDS011;5547;42.672;23.230;2023-02-16T01:34:58;58.27;;;31.33;;
10987;SDS011;5547;42.672;23.230;2023-02-16T01:37:59;55.53;;;31.43;;
10987;SDS011;5547;42.672;23.230;2023-02-16T01:44:48;67.28;;;34.50;;
10987;SDS011;5547;42.672;23.230;2023-02-16T01:47:54;60.50;;;32.97;;
10987;SDS011;5547;42.672;23.230;2023-02-16T01:57:51;56.15;;;31.88;;
10987;SDS011;5547;42.672;23.230;2023-02-16T02:03:57;61.50;;;32.83;;
10987;SDS011;5547;42.672;23.230;2023-02-16T02:07:20;62.78;;;33.13;;
10987;SDS011;5547;42.672;23.230;2023-02-16T02:13:39;61.13;;;33.13;;
10987;SDS011;5547;42.672;23.230;2023-02-16T02:36:49;61.85;;;33.05;;
10987;SDS011;5547;42.672;23.230;2023-02-16T02:46:30;60.83;;;31.17;;
10987;SDS011;5547;42.672;23.230;2023-02-16T02:49:33;59.55;;;33.05;;
10987;SDS011;5547;42.672;23.230;2023-02-16T02:52:33;64.13;;;32.33;;
10987;SDS011;5547;42.672;23.230;2023-02-16T02:55:34;72.93;;;34.78;;
10987;SDS011;5547;42.672;23.230;2023-02-16T02:58:57;60.47;;;31.23;;
10987;SDS011;5547;42.672;23.230;2023-02-16T03:02:22;51.50;;;27.75;;
10987;SDS011;5547;42.672;23.230;2023-02-16T03:05:26;48.53;;;26.57;;
10987;SDS011;5547;42.672;23.230;2023-02-16T03:08:29;50.13;;;26.75;;
10987;SDS011;5547;42.672;23.230;2023-02-16T03:11:32;52.15;;;27.25;;
10987;SDS011;5547;42.672;23.230;2023-02-16T03:14:55;50.00;;;27.27;;
10987;SDS011;5547;42.672;23.230;2023-02-16T03:17:59;44.03;;;24.35;;
10987;SDS011;5547;42.672;23.230;2023-02-16T03:21:20;42.08;;;24.48;;
10987;SDS011;5547;42.672;23.230;2023-02-16T03:24:40;43.08;;;25.17;;
10987;SDS011;5547;42.672;23.230;2023-02-16T03:27:59;42.75;;;24.73;;
10987;SDS011;5547;42.672;23.230;2023-02-16T03:31:24;40.70;;;24.13;;
10987;SDS011;5547;42.672;23.230;2023-02-16T03:34:28;40.55;;;24.05;;
10987;SDS011;5547;42.672;23.230;2023-02-16T03:37:31;37.63;;;22.13;;
10987;SDS011;5547;42.672;23.230;2023-02-16T03:40:31;37.67;;;21.80;;
10987;SDS011;5547;42.672;23.230;2023-02-16T03:43:34;40.47;;;23.23;;
10987;SDS011;5547;42.672;23.230;2023-02-16T03:46:34;40.17;;;23.40;;
10987;SDS011;5547;42.672;23.230;2023-02-16T03:49:34;40.60;;;23.43;;
10987;SDS011;5547;42.672;23.230;2023-02-16T03:52:35;38.23;;;21.87;;
10987;SDS011;5547;42.672;23.230;2023-02-16T03:55:36;39.00;;;22.57;;
10987;SDS011;5547;42.672;23.230;2023-02-16T03:58:39;42.00;;;23.07;;
10987;SDS011;5547;42.672;23.230;2023-02-16T04:01:40;40.75;;;21.25;;
10987;SDS011;5547;42.672;23.230;2023-02-16T04:04:40;35.50;;;21.03;;
10987;SDS011;5547;42.672;23.230;2023-02-16T04:07:41;37.47;;;20.80;;
10987;SDS011;5547;42.672;23.230;2023-02-16T04:10:41;37.77;;;20.90;;
10987;SDS011;5547;42.672;23.230;2023-02-16T04:13:41;39.30;;;22.87;;
10987;SDS011;5547;42.672;23.230;2023-02-16T04:16:42;40.73;;;23.13;;
10987;SDS011;5547;42.672;23.230;2023-02-16T04:19:42;44.90;;;25.60;;
10987;SDS011;5547;42.672;23.230;2023-02-16T04:22:43;51.77;;;27.47;;
10987;SDS011;5547;42.672;23.230;2023-02-16T04:25:44;51.43;;;27.07;;
10987;SDS011;5547;42.672;23.230;2023-02-16T04:28:44;54.75;;;28.17;;
10987;SDS011;5547;42.672;23.230;2023-02-16T04:31:45;52.30;;;28.27;;
10987;SDS011;5547;42.672;23.230;2023-02-16T04:34:45;54.03;;;28.37;;
10987;SDS011;5547;42.672;23.230;2023-02-16T04:37:46;51.63;;;28.45;;
10987;SDS011;5547;42.672;23.230;2023-02-16T04:40:46;48.83;;;27.03;;
10987;SDS011;5547;42.672;23.230;2023-02-16T04:43:46;51.13;;;27.93;;
10987;SDS011;5547;42.672;23.230;2023-02-16T04:46:47;50.20;;;28.17;;
10987;SDS011;5547;42.672;23.230;2023-02-16T04:49:47;53.50;;;29.43;;
10987;SDS011;5547;42.672;23.230;2023-02-16T04:52:47;53.00;;;28.93;;
10987;SDS011;5547;42.672;23.230;2023-02-16T04:55:48;48.43;;;26.73;;
10987;SDS011;5547;42.672;23.230;2023-02-16T04:58:49;53.90;;;30.55;;
10987;SDS011;5547;42.672;23.230;2023-02-16T05:01:49;66.40;;;33.77;;
10987;SDS011;5547;42.672;23.230;2023-02-16T05:04:50;60.67;;;32.25;;
10987;SDS011;5547;42.672;23.230;2023-02-16T05:07:50;70.80;;;35.67;;
10987;SDS011;5547;42.672;23.230;2023-02-16T05:10:51;72.67;;;34.50;;
10987;SDS011;5547;42.672;23.230;2023-02-16T05:14:17;78.57;;;37.40;;
10987;SDS011;5547;42.672;23.230;2023-02-16T05:17:41;72.88;;;35.78;;
10987;SDS011;5547;42.672;23.230;2023-02-16T05:20:42;83.05;;;36.13;;
10987;SDS011;5547;42.672;23.230;2023-02-16T05:24:02;84.18;;;38.00;;
10987;SDS011;5547;42.672;23.230;2023-02-16T05:27:06;78.13;;;36.63;;
10987;SDS011;5547;42.672;23.230;2023-02-16T05:30:08;66.40;;;34.72;;
10987;SDS011;5547;42.672;23.230;2023-02-16T05:33:09;63.95;;;33.80;;
10987;SDS011;5547;42.672;23.230;2023-02-16T05:36:09;70.17;;;34.83;;
10987;SDS011;5547;42.672;23.230;2023-02-16T05:39:09;75.73;;;36.13;;
10987;SDS011;5547;42.672;23.230;2023-02-16T05:42:10;66.55;;;35.10;;
10987;SDS011;5547;42.672;23.230;2023-02-16T05:45:11;65.47;;;33.97;;
10987;SDS011;5547;42.672;23.230;2023-02-16T05:48:11;70.07;;;33.70;;
10987;SDS011;5547;42.672;23.230;2023-02-16T05:51:12;63.63;;;34.43;;
10987;SDS011;5547;42.672;23.230;2023-02-16T05:54:13;64.20;;;32.85;;
10987;SDS011;5547;42.672;23.230;2023-02-16T05:57:16;66.25;;;34.97;;
10987;SDS011;5547;42.672;23.230;2023-02-16T06:00:16;68.43;;;35.27;;
10987;SDS011;5547;42.672;23.230;2023-02-16T06:03:17;69.63;;;37.40;;
10987;SDS011;5547;42.672;23.230;2023-02-16T06:06:17;73.13;;;39.60;;
10987;SDS011;5547;42.672;23.230;2023-02-16T06:09:18;69.35;;;37.97;;
10987;SDS011;5547;42.672;23.230;2023-02-16T06:12:19;66.37;;;39.37;;
10987;SDS011;5547;42.672;23.230;2023-02-16T06:15:19;68.27;;;40.27;;
10987;SDS011;5547;42.672;23.230;2023-02-16T06:18:20;58.10;;;36.53;;
10987;SDS011;5547;42.672;23.230;2023-02-16T06:21:22;59.28;;;36.65;;
10987;SDS011;5547;42.672;23.230;2023-02-16T06:24:23;60.08;;;37.85;;
10987;SDS011;5547;42.672;23.230;2023-02-16T06:27:23;68.13;;;43.10;;
10987;SDS011;5547;42.672;23.230;2023-02-16T06:30:24;70.13;;;44.92;;
10987;SDS011;5547;42.672;23.230;2023-02-16T06:33:24;63.67;;;40.63;;
10987;SDS011;5547;42.672;23.230;2023-02-16T06:36:25;64.22;;;38.10;;
10987;SDS011;5547;42.672;23.230;2023-02-16T06:39:26;59.50;;;37.70;;
10987;SDS011;5547;42.672;23.230;2023-02-16T06:42:26;63.50;;;38.80;;
10987;SDS011;5547;42.672;23.230;2023-02-16T06:45:27;61.27;;;37.73;;
10987;SDS011;5547;42.672;23.230;2023-02-16T06:48:27;55.63;;;35.30;;
10987;SDS011;5547;42.672;23.230;2023-02-16T06:51:28;58.30;;;36.37;;
10987;SDS011;5547;42.672;23.230;2023-02-16T06:54:28;71.25;;;47.30;;
10987;SDS011;5547;42.672;23.230;2023-02-16T06:57:29;70.03;;;46.10;;
10987;SDS011;5547;42.672;23.230;2023-02-16T07:00:29;70.38;;;47.05;;
10987;SDS011;5547;42.672;23.230;2023-02-16T07:03:30;72.65;;;47.60;;
10987;SDS011;5547;42.672;23.230;2023-02-16T07:06:30;68.43;;;44.83;;
10987;SDS011;5547;42.672;23.230;2023-02-16T07:09:31;61.53;;;40.42;;
10987;SDS011;5547;42.672;23.230;2023-02-16T07:12:31;60.97;;;38.57;;
10987;SDS011;5547;42.672;23.230;2023-02-16T07:15:32;66.63;;;44.77;;
10987;SDS011;5547;42.672;23.230;2023-02-16T07:18:32;65.53;;;41.53;;
10987;SDS011;5547;42.672;23.230;2023-02-16T07:21:33;66.13;;;44.03;;
10987;SDS011;5547;42.672;23.230;2023-02-16T07:24:34;62.03;;;39.42;;
10987;SDS011;5547;42.672;23.230;2023-02-16T07:27:35;62.33;;;40.97;;
10987;SDS011;5547;42.672;23.230;2023-02-16T07:30:35;66.73;;;41.00;;
10987;SDS011;5547;42.672;23.230;2023-02-16T07:33:35;61.28;;;39.70;;
10987;SDS011;5547;42.672;23.230;2023-02-16T07:36:37;65.57;;;43.47;;
10987;SDS011;5547;42.672;23.230;2023-02-16T07:39:37;61.97;;;42.00;;
10987;SDS011;5547;42.672;23.230;2023-02-16T07:42:37;65.63;;;41.97;;
10987;SDS011;5547;42.672;23.230;2023-02-16T07:45:38;59.07;;;38.50;;
10987;SDS011;5547;42.672;23.230;2023-02-16T07:48:38;59.60;;;38.87;;
10987;SDS011;5547;42.672;23.230;2023-02-16T07:51:38;58.33;;;37.97;;
10987;SDS011;5547;42.672;23.230;2023-02-16T07:54:39;55.70;;;37.72;;
10987;SDS011;5547;42.672;23.230;2023-02-16T07:57:40;58.80;;;38.50;;
10987;SDS011;5547;42.672;23.230;2023-02-16T08:00:40;61.13;;;39.57;;
10987;SDS011;5547;42.672;23.230;2023-02-16T08:03:40;55.10;;;35.00;;
10987;SDS011;5547;42.672;23.230;2023-02-16T08:06:41;54.70;;;36.10;;
10987;SDS011;5547;42.672;23.230;2023-02-16T08:09:41;51.17;;;35.00;;
10987;SDS011;5547;42.672;23.230;2023-02-16T08:12:42;60.40;;;39.07;;
10987;SDS011;5547;42.672;23.230;2023-02-16T08:15:43;60.08;;;39.35;;
10987;SDS011;5547;42.672;23.230;2023-02-16T08:18:44;63.67;;;42.50;;
10987;SDS011;5547;42.672;23.230;2023-02-16T08:21:44;56.73;;;39.63;;
10987;SDS011;5547;42.672;23.230;2023-02-16T08:24:48;56.22;;;36.17;;
10987;SDS011;5547;42.672;23.230;2023-02-16T08:27:48;53.67;;;37.00;;
10987;SDS011;5547;42.672;23.230;2023-02-16T08:30:49;66.97;;;42.63;;
10987;SDS011;5547;42.672;23.230;2023-02-16T08:33:50;62.97;;;43.53;;
10987;SDS011;5547;42.672;23.230;2023-02-16T08:36:55;68.38;;;45.83;;
10987;SDS011;5547;42.672;23.230;2023-02-16T08:39:56;71.20;;;48.05;;
10987;SDS011;5547;42.672;23.230;2023-02-16T08:42:59;70.18;;;45.38;;
10987;SDS011;5547;42.672;23.230;2023-02-16T08:46:00;69.43;;;44.53;;
10987;SDS011;5547;42.672;23.230;2023-02-16T08:49:00;71.33;;;47.37;;
10987;SDS011;5547;42.672;23.230;2023-02-16T08:52:05;67.50;;;44.87;;
10987;SDS011;5547;42.672;23.230;2023-02-16T08:55:06;67.50;;;46.33;;
10987;SDS011;5547;42.672;23.230;2023-02-16T08:58:07;66.38;;;44.22;;
10987;SDS011;5547;42.672;23.230;2023-02-16T09:01:07;63.27;;;41.80;;
10987;SDS011;5547;42.672;23.230;2023-02-16T09:04:09;64.32;;;43.20;;
10987;SDS011;5547;42.672;23.230;2023-02-16T09:07:12;69.47;;;46.25;;
10987;SDS011;5547;42.672;23.230;2023-02-16T09:10:12;67.60;;;43.97;;
10987;SDS011;5547;42.672;23.230;2023-02-16T09:13:13;67.57;;;44.23;;
10987;SDS011;5547;42.672;23.230;2023-02-16T09:16:17;67.37;;;45.20;;
10987;SDS011;5547;42.672;23.230;2023-02-16T09:19:20;67.23;;;46.97;;
10987;SDS011;5547;42.672;23.230;2023-02-16T09:22:20;72.97;;;48.60;;
10987;SDS011;5547;42.672;23.230;2023-02-16T09:25:21;66.77;;;45.77;;
10987;SDS011;5547;42.672;23.230;2023-02-16T09:28:23;71.35;;;48.20;;
10987;SDS011;5547;42.672;23.230;2023-02-16T09:31:28;74.78;;;46.08;;
10987;SDS011;5547;42.672;23.230;2023-02-16T09:34:31;71.43;;;48.30;;
10987;SDS011;5547;42.672;23.230;2023-02-16T09:37:33;68.93;;;47.28;;
10987;SDS011;5547;42.672;23.230;2023-02-16T09:40:33;70.65;;;46.85;;
10987;SDS011;5547;42.672;23.230;2023-02-16T09:43:51;72.88;;;47.70;;
10987;SDS011;5547;42.672;23.230;2023-02-16T09:47:54;74.73;;;51.03;;
10987;SDS011;5547;42.672;23.230;2023-02-16T09:50:41;74.15;;;49.28;;
10987;SDS011;5547;42.672;23.230;2023-02-16T09:53:41;75.33;;;49.47;;
10987;SDS011;5547;42.672;23.230;2023-02-16T09:57:04;82.78;;;53.80;;
10987;SDS011;5547;42.672;23.230;2023-02-16T10:00:36;83.68;;;53.25;;
10987;SDS011;5547;42.672;23.230;2023-02-16T10:10:41;87.60;;;55.83;;
10987;SDS011;5547;42.672;23.230;2023-02-16T10:13:49;92.65;;;59.95;;
10987;SDS011;5547;42.672;23.230;2023-02-16T10:20:38;93.88;;;65.05;;
10987;SDS011;5547;42.672;23.230;2023-02-16T10:23:51;91.38;;;62.95;;
10987;SDS011;5547;42.672;23.230;2023-02-16T10:27:01;93.90;;;62.63;;
10987;SDS011;5547;42.672;23.230;2023-02-16T10:30:19;94.75;;;61.35;;
10987;SDS011;5547;42.672;23.230;2023-02-16T10:46:21;93.72;;;58.42;;
10987;SDS011;5547;42.672;23.230;2023-02-16T10:49:24;92.88;;;61.20;;
10987;SDS011;5547;42.672;23.230;2023-02-16T10:52:26;97.43;;;63.03;;
10987;SDS011;5547;42.672;23.230;2023-02-16T10:55:31;95.18;;;61.20;;
10987;SDS011;5547;42.672;23.230;2023-02-16T10:58:36;92.35;;;60.92;;
10987;SDS011;5547;42.672;23.230;2023-02-16T11:01:41;95.68;;;62.83;;
10987;SDS011;5547;42.672;23.230;2023-02-16T11:04:44;94.00;;;63.65;;
10987;SDS011;5547;42.672;23.230;2023-02-16T11:07:54;91.90;;;64.18;;
10987;SDS011;5547;42.672;23.230;2023-02-16T11:10:56;90.47;;;61.22;;
10987;SDS011;5547;42.672;23.230;2023-02-16T11:14:00;88.40;;;58.67;;
10987;SDS011;5547;42.672;23.230;2023-02-16T11:17:07;90.70;;;60.22;;
10987;SDS011;5547;42.672;23.230;2023-02-16T11:20:23;88.77;;;59.13;;
10987;SDS011;5547;42.672;23.230;2023-02-16T11:23:31;89.23;;;60.47;;
10987;SDS011;5547;42.672;23.230;2023-02-16T11:26:34;88.40;;;59.60;;
10987;SDS011;5547;42.672;23.230;2023-02-16T11:29:35;88.27;;;58.10;;
10987;SDS011;5547;42.672;23.230;2023-02-16T11:32:35;84.17;;;55.70;;
10987;SDS011;5547;42.672;23.230;2023-02-16T11:35:40;92.63;;;57.70;;
10987;SDS011;5547;42.672;23.230;2023-02-16T11:38:42;82.68;;;54.92;;
10987;SDS011;5547;42.672;23.230;2023-02-16T11:41:57;85.53;;;58.00;;
10987;SDS011;5547;42.672;23.230;2023-02-16T11:45:01;85.00;;;57.00;;
10987;SDS011;5547;42.672;23.230;2023-02-16T11:48:07;81.60;;;55.33;;
10987;SDS011;5547;42.672;23.230;2023-02-16T11:51:13;81.00;;;53.08;;
10987;SDS011;5547;42.672;23.230;2023-02-16T11:54:19;82.55;;;56.55;;
10987;SDS011;5547;42.672;23.230;2023-02-16T11:57:53;106.18;;;65.95;;
10987;SDS011;5547;42.672;23.230;2023-02-16T12:14:06;79.28;;;51.05;;
10987;SDS011;5547;42.672;23.230;2023-02-16T12:27:02;72.65;;;46.72;;
10987;SDS011;5547;42.672;23.230;2023-02-16T12:33:31;70.45;;;48.17;;
10987;SDS011;5547;42.672;23.230;2023-02-16T12:36:56;71.00;;;47.75;;
10987;SDS011;5547;42.672;23.230;2023-02-16T12:40:27;70.28;;;46.05;;
10987;SDS011;5547;42.672;23.230;2023-02-16T12:43:37;68.78;;;45.25;;
10987;SDS011;5547;42.672;23.230;2023-02-16T12:46:39;69.43;;;44.45;;
10987;SDS011;5547;42.672;23.230;2023-02-16T12:52:52;72.77;;;47.40;;
10987;SDS011;5547;42.672;23.230;2023-02-16T12:56:00;67.00;;;44.20;;
10987;SDS011;5547;42.672;23.230;2023-02-16T13:05:30;69.35;;;44.40;;
10987;SDS011;5547;42.672;23.230;2023-02-16T13:15:10;67.60;;;44.22;;
10987;SDS011;5547;42.672;23.230;2023-02-16T13:18:23;67.82;;;43.95;;
10987;SDS011;5547;42.672;23.230;2023-02-16T13:38:26;66.90;;;43.30;;
10987;SDS011;5547;42.672;23.230;2023-02-16T13:44:55;65.63;;;42.58;;
10987;SDS011;5547;42.672;23.230;2023-02-16T13:47:58;64.80;;;42.30;;
10987;SDS011;5547;42.672;23.230;2023-02-16T13:51:00;64.90;;;42.30;;
10987;SDS011;5547;42.672;23.230;2023-02-16T13:54:05;61.65;;;40.40;;
10987;SDS011;5547;42.672;23.230;2023-02-16T13:57:14;60.40;;;40.97;;
10987;SDS011;5547;42.672;23.230;2023-02-16T14:00:47;65.60;;;40.95;;
10987;SDS011;5547;42.672;23.230;2023-02-16T14:03:48;62.65;;;40.80;;
10987;SDS011;5547;42.672;23.230;2023-02-16T14:06:50;62.63;;;39.60;;
10987;SDS011;5547;42.672;23.230;2023-02-16T14:10:13;66.03;;;41.77;;
10987;SDS011;5547;42.672;23.230;2023-02-16T14:13:14;64.57;;;41.33;;
10987;SDS011;5547;42.672;23.230;2023-02-16T14:19:23;61.03;;;38.67;;
10987;SDS011;5547;42.672;23.230;2023-02-16T14:25:45;61.40;;;39.67;;
10987;SDS011;5547;42.672;23.230;2023-02-16T14:31:57;60.60;;;38.72;;
10987;SDS011;5547;42.672;23.230;2023-02-16T14:35:13;58.08;;;39.17;;
10987;SDS011;5547;42.672;23.230;2023-02-16T14:38:28;60.43;;;39.80;;
10987;SDS011;5547;42.672;23.230;2023-02-16T14:41:32;61.55;;;40.17;;
10987;SDS011;5547;42.672;23.230;2023-02-16T14:48:10;59.53;;;38.80;;
10987;SDS011;5547;42.672;23.230;2023-02-16T14:58:46;67.63;;;41.55;;
10987;SDS011;5547;42.672;23.230;2023-02-16T15:01:43;60.55;;;39.78;;
10987;SDS011;5547;42.672;23.230;2023-02-16T15:04:45;60.63;;;38.55;;
10987;SDS011;5547;42.672;23.230;2023-02-16T15:07:46;62.50;;;40.70;;
10987;SDS011;5547;42.672;23.230;2023-02-16T15:10:52;62.90;;;40.67;;
10987;SDS011;5547;42.672;23.230;2023-02-16T15:14:04;56.10;;;37.83;;
10987;SDS011;5547;42.672;23.230;2023-02-16T15:17:07;57.58;;;36.72;;
10987;SDS011;5547;42.672;23.230;2023-02-16T15:23:18;66.33;;;41.73;;
10987;SDS011;5547;42.672;23.230;2023-02-16T15:26:22;68.53;;;41.87;;
10987;SDS011;5547;42.672;23.230;2023-02-16T15:29:25;65.97;;;39.90;;
10987;SDS011;5547;42.672;23.230;2023-02-16T15:32:27;59.45;;;39.10;;
10987;SDS011;5547;42.672;23.230;2023-02-16T15:38:32;54.22;;;36.83;;
10987;SDS011;5547;42.672;23.230;2023-02-16T15:41:36;54.57;;;35.93;;
10987;SDS011;5547;42.672;23.230;2023-02-16T15:44:38;54.40;;;35.93;;
10987;SDS011;5547;42.672;23.230;2023-02-16T15:47:39;41.85;;;29.08;;
10987;SDS011;5547;42.672;23.230;2023-02-16T15:50:40;38.73;;;24.50;;
10987;SDS011;5547;42.672;23.230;2023-02-16T15:57:13;39.53;;;25.48;;
10987;SDS011;5547;42.672;23.230;2023-02-16T16:00:26;38.58;;;25.77;;
10987;SDS011;5547;42.672;23.230;2023-02-16T16:03:27;36.15;;;22.52;;
10987;SDS011;5547;42.672;23.230;2023-02-16T16:06:33;32.70;;;22.00;;
10987;SDS011;5547;42.672;23.230;2023-02-16T16:09:35;31.40;;;21.95;;
10987;SDS011;5547;42.672;23.230;2023-02-16T16:12:38;31.52;;;21.70;;
10987;SDS011;5547;42.672;23.230;2023-02-16T16:15:40;30.80;;;20.90;;
10987;SDS011;5547;42.672;23.230;2023-02-16T16:18:45;29.33;;;19.20;;
10987;SDS011;5547;42.672;23.230;2023-02-16T16:21:53;30.77;;;20.70;;
10987;SDS011;5547;42.672;23.230;2023-02-16T16:24:54;28.55;;;19.02;;
10987;SDS011;5547;42.672;23.230;2023-02-16T16:27:55;30.08;;;19.85;;
10987;SDS011;5547;42.672;23.230;2023-02-16T16:31:09;32.03;;;20.10;;
10987;SDS011;5547;42.672;23.230;2023-02-16T16:34:34;28.70;;;18.80;;
10987;SDS011;5547;42.672;23.230;2023-02-16T16:37:36;27.38;;;17.98;;
10987;SDS011;5547;42.672;23.230;2023-02-16T16:40:37;27.17;;;18.73;;
10987;SDS011;5547;42.672;23.230;2023-02-16T16:43:40;24.90;;;17.87;;
10987;SDS011;5547;42.672;23.230;2023-02-16T16:46:53;15.60;;;10.48;;
10987;SDS011;5547;42.672;23.230;2023-02-16T16:49:57;13.00;;;9.60;;
10987;SDS011;5547;42.672;23.230;2023-02-16T16:53:00;14.00;;;10.32;;
10987;SDS011;5547;42.672;23.230;2023-02-16T16:56:01;14.30;;;9.73;;
10987;SDS011;5547;42.672;23.230;2023-02-16T16:59:02;12.50;;;9.00;;
10987;SDS011;5547;42.672;23.230;2023-02-16T17:02:03;10.80;;;7.60;;
10987;SDS011;5547;42.672;23.230;2023-02-16T17:05:03;10.82;;;7.22;;
10987;SDS011;5547;42.672;23.230;2023-02-16T17:08:04;11.45;;;7.78;;
10987;SDS011;5547;42.672;23.230;2023-02-16T17:11:05;10.37;;;6.90;;
10987;SDS011;5547;42.672;23.230;2023-02-16T17:14:09;10.13;;;6.38;;
10987;SDS011;5547;42.672;23.230;2023-02-16T17:17:15;11.27;;;6.40;;
10987;SDS011;5547;42.672;23.230;2023-02-16T17:20:15;10.97;;;6.73;;
10987;SDS011;5547;42.672;23.230;2023-02-16T17:23:17;10.18;;;5.82;;
10987;SDS011;5547;42.672;23.230;2023-02-16T17:26:20;12.77;;;7.47;;
10987;SDS011;5547;42.672;23.230;2023-02-16T17:29:21;11.98;;;7.22;;
10987;SDS011;5547;42.672;23.230;2023-02-16T17:32:22;14.75;;;8.18;;
10987;SDS011;5547;42.672;23.230;2023-02-16T17:35:23;12.20;;;7.70;;
10987;SDS011;5547;42.672;23.230;2023-02-16T17:38:24;10.93;;;6.70;;
10987;SDS011;5547;42.672;23.230;2023-02-16T17:41:25;8.57;;;5.27;;
10987;SDS011;5547;42.672;23.230;2023-02-16T17:44:27;7.82;;;4.90;;
10987;SDS011;5547;42.672;23.230;2023-02-16T17:47:27;7.43;;;5.17;;
10987;SDS011;5547;42.672;23.230;2023-02-16T17:50:28;69.50;;;39.37;;
10987;SDS011;5547;42.672;23.230;2023-02-16T17:53:29;9.63;;;6.50;;
10987;SDS011;5547;42.672;23.230;2023-02-16T17:56:30;7.60;;;4.50;;
10987;SDS011;5547;42.672;23.230;2023-02-16T17:59:31;24.23;;;18.70;;
10987;SDS011;5547;42.672;23.230;2023-02-16T18:02:33;8.98;;;4.82;;
10987;SDS011;5547;42.672;23.230;2023-02-16T18:05:33;7.17;;;4.73;;
10987;SDS011;5547;42.672;23.230;2023-02-16T18:08:35;6.50;;;4.50;;
10987;SDS011;5547;42.672;23.230;2023-02-16T18:11:35;7.10;;;4.85;;
10987;SDS011;5547;42.672;23.230;2023-02-16T18:14:35;7.27;;;4.90;;
10987;SDS011;5547;42.672;23.230;2023-02-16T18:17:36;7.37;;;5.10;;
10987;SDS011;5547;42.672;23.230;2023-02-16T18:20:36;7.67;;;5.43;;
10987;SDS011;5547;42.672;23.230;2023-02-16T18:23:37;8.17;;;5.70;;
10987;SDS011;5547;42.672;23.230;2023-02-16T18:26:38;6.43;;;4.70;;
10987;SDS011;5547;42.672;23.230;2023-02-16T18:29:38;9.23;;;5.43;;
10987;SDS011;5547;42.672;23.230;2023-02-16T18:32:39;9.15;;;6.57;;
10987;SDS011;5547;42.672;23.230;2023-02-16T18:35:41;7.95;;;5.50;;
10987;SDS011;5547;42.672;23.230;2023-02-16T18:38:41;7.40;;;5.70;;
10987;SDS011;5547;42.672;23.230;2023-02-16T18:41:42;7.60;;;5.40;;
10987;SDS011;5547;42.672;23.230;2023-02-16T18:44:43;10.23;;;4.80;;
10987;SDS011;5547;42.672;23.230;2023-02-16T18:47:46;6.80;;;5.28;;
10987;SDS011;5547;42.672;23.230;2023-02-16T18:50:47;7.57;;;5.70;;
10987;SDS011;5547;42.672;23.230;2023-02-16T18:53:48;7.60;;;5.55;;
10987;SDS011;5547;42.672;23.230;2023-02-16T18:56:48;8.32;;;5.95;;
10987;SDS011;5547;42.672;23.230;2023-02-16T18:59:49;11.23;;;7.43;;
10987;SDS011;5547;42.672;23.230;2023-02-16T19:02:49;11.27;;;7.83;;
10987;SDS011;5547;42.672;23.230;2023-02-16T19:05:50;12.95;;;8.65;;
10987;SDS011;5547;42.672;23.230;2023-02-16T19:08:50;16.67;;;10.77;;
10987;SDS011;5547;42.672;23.230;2023-02-16T19:11:51;11.32;;;7.95;;
10987;SDS011;5547;42.672;23.230;2023-02-16T19:14:52;11.88;;;7.97;;
10987;SDS011;5547;42.672;23.230;2023-02-16T19:17:52;19.87;;;12.93;;
10987;SDS011;5547;42.672;23.230;2023-02-16T19:20:52;21.47;;;13.23;;
10987;SDS011;5547;42.672;23.230;2023-02-16T19:23:53;29.23;;;17.90;;
10987;SDS011;5547;42.672;23.230;2023-02-16T19:26:54;34.10;;;21.33;;
10987;SDS011;5547;42.672;23.230;2023-02-16T19:29:54;29.27;;;19.47;;
10987;SDS011;5547;42.672;23.230;2023-02-16T19:32:55;31.07;;;19.47;;
10987;SDS011;5547;42.672;23.230;2023-02-16T19:36:04;28.67;;;17.17;;
10987;SDS011;5547;42.672;23.230;2023-02-16T19:39:06;28.98;;;20.15;;
10987;SDS011;5547;42.672;23.230;2023-02-16T19:42:07;30.67;;;19.77;;
10987;SDS011;5547;42.672;23.230;2023-02-16T19:45:07;28.95;;;18.70;;
10987;SDS011;5547;42.672;23.230;2023-02-16T19:48:08;31.80;;;20.07;;
10987;SDS011;5547;42.672;23.230;2023-02-16T19:51:09;33.10;;;21.30;;
10987;SDS011;5547;42.672;23.230;2023-02-16T19:54:09;31.43;;;21.07;;
10987;SDS011;5547;42.672;23.230;2023-02-16T19:57:10;32.37;;;20.77;;
10987;SDS011;5547;42.672;23.230;2023-02-16T20:00:10;30.50;;;20.60;;
10987;SDS011;5547;42.672;23.230;2023-02-16T20:03:13;28.30;;;17.75;;
10987;SDS011;5547;42.672;23.230;2023-02-16T20:06:30;32.00;;;20.63;;
10987;SDS011;5547;42.672;23.230;2023-02-16T20:09:38;24.87;;;14.53;;
10987;SDS011;5547;42.672;23.230;2023-02-16T20:12:38;24.23;;;15.77;;
10987;SDS011;5547;42.672;23.230;2023-02-16T20:15:39;21.90;;;15.63;;
10987;SDS011;5547;42.672;23.230;2023-02-16T20:18:39;14.73;;;10.07;;
10987;SDS011;5547;42.672;23.230;2023-02-16T20:21:41;13.23;;;9.40;;
10987;SDS011;5547;42.672;23.230;2023-02-16T20:24:43;10.03;;;6.57;;
10987;SDS011;5547;42.672;23.230;2023-02-16T20:27:46;8.37;;;5.93;;
10987;SDS011;5547;42.672;23.230;2023-02-16T20:30:47;8.05;;;5.97;;
10987;SDS011;5547;42.672;23.230;2023-02-16T20:33:48;9.02;;;5.93;;
10987;SDS011;5547;42.672;23.230;2023-02-16T20:36:48;10.37;;;5.63;;
10987;SDS011;5547;42.672;23.230;2023-02-16T20:39:49;8.70;;;6.43;;